Time;durP1;ratioP1;P1;durP2;ratioP2;P2;SDS_P1;SDS_P2;PMS_P1;PMS_P2;Temp;Humidity;BMP_temperature;BMP_pressure;BME280_temperature;BME280_humidity;BME280_pressure;Samples;Min_cycle;Max_cycle;Signal;HPM_P1;HPM_P2
2022/06/01 00:01:53;;;;;;;63.10;4.90;;;;;;;;;;5075306;28;20439;-81
2022/06/01 00:04:21;;;;;;;60.70;4.43;;;;;;;;;;5075165;28;20439;-81
2022/06/01 00:06:50;;;;;;;60.57;4.73;;;;;;;;;;5075292;28;20439;-81
2022/06/01 00:09:17;;;;;;;60.47;4.60;;;;;;;;;;5075115;28;20502;-81
2022/06/01 00:11:44;;;;;;;60.13;4.00;;;;;;;;;;5075786;28;20513;-82
2022/06/01 00:14:12;;;;;;;62.47;4.73;;;;;;;;;;5075471;28;20486;-82
2022/06/01 00:16:39;;;;;;;61.07;5.17;;;;;;;;;;5075532;28;20478;-82
2022/06/01 00:19:07;;;;;;;60.23;4.30;;;;;;;;;;5075406;28;20435;-82
2022/06/01 00:22:11;;;;;;;62.20;4.50;;;;;;;;;;5075488;28;20453;-82
2022/06/01 00:24:24;;;;;;;61.40;4.90;;;;;;;;;;5075894;28;20500;-82
2022/06/01 00:26:51;;;;;;;60.87;4.40;;;;;;;;;;5076123;28;20432;-81
2022/06/01 00:29:18;;;;;;;61.37;4.70;;;;;;;;;;5075505;28;20468;-81
2022/06/01 00:31:46;;;;;;;61.07;4.70;;;;;;;;;;5076117;28;20534;-82
2022/06/01 00:34:13;;;;;;;61.80;4.33;;;;;;;;;;5075978;28;20848;-82
2022/06/01 00:36:40;;;;;;;60.30;4.07;;;;;;;;;;5075893;28;20506;-82
2022/06/01 00:39:07;;;;;;;62.60;4.53;;;;;;;;;;5075609;28;20435;-81
2022/06/01 00:41:36;;;;;;;60.13;4.10;;;;;;;;;;5076155;28;20535;-81
2022/06/01 00:44:03;;;;;;;60.40;4.43;;;;;;;;;;5075818;28;20439;-82
2022/06/01 00:46:31;;;;;;;61.80;5.10;;;;;;;;;;5076115;28;20489;-82
2022/06/01 00:49:01;;;;;;;60.77;4.77;;;;;;;;;;5076084;28;20470;-80
2022/06/01 00:51:29;;;;;;;60.30;4.57;;;;;;;;;;5076204;28;20444;-81
2022/06/01 00:53:56;;;;;;;65.60;5.50;;;;;;;;;;5076340;28;20831;-81
2022/06/01 00:56:26;;;;;;;61.37;4.77;;;;;;;;;;5076318;28;21002;-81
2022/06/01 00:58:57;;;;;;;60.03;4.07;;;;;;;;;;5076278;28;20435;-81
2022/06/01 01:01:25;;;;;;;60.70;4.50;;;;;;;;;;5076980;28;20420;-81
2022/06/01 01:03:55;;;;;;;59.67;3.87;;;;;;;;;;5076340;28;20438;-79
2022/06/01 01:06:24;;;;;;;60.37;4.40;;;;;;;;;;5075915;28;20946;-79
2022/06/01 01:08:52;;;;;;;60.40;4.20;;;;;;;;;;5076228;28;20443;-79
2022/06/01 01:11:22;;;;;;;60.80;4.30;;;;;;;;;;5077234;28;20435;-80
2022/06/01 01:13:50;;;;;;;60.20;4.23;;;;;;;;;;5078935;28;20443;-81
2022/06/01 01:16:20;;;;;;;60.57;4.00;;;;;;;;;;5078019;28;20438;-80
2022/06/01 01:18:48;;;;;;;60.20;4.70;;;;;;;;;;5076832;28;20474;-80
2022/06/01 01:21:24;;;;;;;59.80;3.70;;;;;;;;;;5077136;28;20451;-80
2022/06/01 01:23:54;;;;;;;60.93;4.43;;;;;;;;;;5078466;28;20481;-80
2022/06/01 01:26:24;;;;;;;60.50;4.80;;;;;;;;;;5078675;28;20892;-80
2022/06/01 01:28:52;;;;;;;60.20;4.33;;;;;;;;;;5078402;28;20444;-80
2022/06/01 01:31:21;;;;;;;60.67;4.10;;;;;;;;;;5077954;28;20443;-80
2022/06/01 01:33:50;;;;;;;60.17;3.90;;;;;;;;;;5078343;28;20440;-81
2022/06/01 01:36:19;;;;;;;65.30;4.90;;;;;;;;;;5078067;28;20436;-80
2022/06/01 01:38:50;;;;;;;60.97;4.93;;;;;;;;;;5077848;28;20449;-80
2022/06/01 01:41:21;;;;;;;60.10;4.17;;;;;;;;;;5077995;28;20454;-80
2022/06/01 01:43:53;;;;;;;60.50;4.43;;;;;;;;;;5078178;28;20415;-81
2022/06/01 01:46:20;;;;;;;60.70;4.30;;;;;;;;;;5078259;28;20468;-80
2022/06/01 01:48:48;;;;;;;62.00;4.80;;;;;;;;;;5076519;28;20450;-80
2022/06/01 01:51:20;;;;;;;61.40;4.70;;;;;;;;;;5077293;28;20495;-81
2022/06/01 01:53:47;;;;;;;60.93;4.57;;;;;;;;;;5077464;28;20412;-80
2022/06/01 01:56:18;;;;;;;60.73;5.40;;;;;;;;;;5078020;28;20434;-80
2022/06/01 01:58:57;;;;;;;60.87;5.17;;;;;;;;;;5077203;28;20621;-80
2022/06/01 02:01:29;;;;;;;60.60;4.40;;;;;;;;;;5077931;28;20415;-81
2022/06/01 02:04:01;;;;;;;60.00;4.20;;;;;;;;;;5078049;28;20451;-80
2022/06/01 02:06:29;;;;;;;60.70;4.70;;;;;;;;;;5077495;28;20414;-80
2022/06/01 02:08:58;;;;;;;60.57;4.50;;;;;;;;;;5077414;28;20428;-81
2022/06/01 02:14:17;;;;;;;60.20;4.27;;;;;;;;;;5077429;28;20435;-81
2022/06/01 02:16:49;;;;;;;60.53;4.83;;;;;;;;;;5078208;28;20467;-81
2022/06/01 02:19:24;;;;;;;60.37;4.27;;;;;;;;;;5081376;28;20448;-80
2022/06/01 02:21:51;;;;;;;60.43;4.20;;;;;;;;;;5081447;28;20493;-80
2022/06/01 02:24:20;;;;;;;60.37;4.43;;;;;;;;;;5080922;28;20466;-80
2022/06/01 02:26:49;;;;;;;61.27;4.90;;;;;;;;;;5081068;28;20507;-81
2022/06/01 02:29:20;;;;;;;64.03;4.80;;;;;;;;;;5081024;28;20489;-81
2022/06/01 02:31:50;;;;;;;61.87;5.57;;;;;;;;;;5081736;28;20438;-80
2022/06/01 02:34:17;;;;;;;60.77;5.07;;;;;;;;;;5080942;28;20439;-81
2022/06/01 02:36:45;;;;;;;61.17;4.50;;;;;;;;;;5080860;28;20872;-81
2022/06/01 02:39:14;;;;;;;60.60;4.57;;;;;;;;;;5081080;28;20443;-81
2022/06/01 02:44:36;;;;;;;62.47;4.90;;;;;;;;;;5044779;28;20495;-80
2022/06/01 02:47:03;;;;;;;63.17;4.60;;;;;;;;;;5080592;28;20498;-81
2022/06/01 02:49:31;;;;;;;60.97;4.43;;;;;;;;;;5081099;28;20481;-81
2022/06/01 02:51:58;;;;;;;61.00;4.50;;;;;;;;;;5080790;28;20432;-80
2022/06/01 02:54:25;;;;;;;60.30;3.80;;;;;;;;;;5080914;28;20496;-80
2022/06/01 02:56:53;;;;;;;62.93;4.47;;;;;;;;;;5080724;28;20467;-81
2022/06/01 02:59:20;;;;;;;61.77;4.80;;;;;;;;;;5080996;28;20517;-80
2022/06/01 03:01:49;;;;;;;60.00;3.87;;;;;;;;;;5080962;28;20450;-81
2022/06/01 03:04:16;;;;;;;60.17;4.40;;;;;;;;;;5080708;28;20509;-80
2022/06/01 03:06:43;;;;;;;60.67;4.70;;;;;;;;;;5077749;28;20512;-80
2022/06/01 03:09:11;;;;;;;60.40;3.90;;;;;;;;;;5073856;28;20438;-80
2022/06/01 03:11:38;;;;;;;61.00;4.80;;;;;;;;;;5074311;28;20457;-80
2022/06/01 03:14:06;;;;;;;60.47;4.20;;;;;;;;;;5074433;28;20449;-80
2022/06/01 03:16:33;;;;;;;62.07;4.53;;;;;;;;;;5074865;28;20922;-80
2022/06/01 03:19:01;;;;;;;61.63;4.60;;;;;;;;;;5074094;28;20902;-80
2022/06/01 03:21:29;;;;;;;60.37;4.33;;;;;;;;;;5074851;28;20492;-80
2022/06/01 03:23:56;;;;;;;61.30;4.50;;;;;;;;;;5074571;28;20459;-80
2022/06/01 03:26:23;;;;;;;60.97;4.43;;;;;;;;;;5074944;28;20504;-80
2022/06/01 03:28:51;;;;;;;59.97;4.30;;;;;;;;;;5073930;28;20998;-81
2022/06/01 03:31:18;;;;;;;60.93;4.67;;;;;;;;;;5075270;28;21060;-80
2022/06/01 03:33:45;;;;;;;61.20;4.50;;;;;;;;;;5075456;28;20522;-80
2022/06/01 03:36:15;;;;;;;61.60;4.97;;;;;;;;;;5074934;28;20493;-80
2022/06/01 03:38:42;;;;;;;62.87;4.60;;;;;;;;;;5075326;28;20480;-80
2022/06/01 03:41:09;;;;;;;60.20;4.17;;;;;;;;;;5075484;28;20479;-80
2022/06/01 03:45:55;;;;;;;60.30;3.90;;;;;;;;;;5075230;28;20466;-81
2022/06/01 03:46:23;;;;;;;60.50;4.27;;;;;;;;;;5075857;28;20446;-80
2022/06/01 03:48:51;;;;;;;60.57;4.37;;;;;;;;;;5075297;28;20442;-80
2022/06/01 03:51:20;;;;;;;62.07;5.33;;;;;;;;;;5076058;28;20461;-80
2022/06/01 03:53:48;;;;;;;60.00;4.50;;;;;;;;;;5075456;28;20439;-80
2022/06/01 03:56:15;;;;;;;61.43;4.77;;;;;;;;;;5075704;28;20436;-80
2022/06/01 03:58:42;;;;;;;62.70;4.40;;;;;;;;;;5075281;28;20478;-79
2022/06/01 04:01:10;;;;;;;60.30;4.23;;;;;;;;;;5075510;28;20453;-80
2022/06/01 04:03:37;;;;;;;60.80;4.70;;;;;;;;;;5075852;28;20501;-80
2022/06/01 04:06:04;;;;;;;60.90;4.63;;;;;;;;;;5075909;28;20424;-80
2022/06/01 04:08:33;;;;;;;60.47;4.80;;;;;;;;;;5075932;28;20454;-80
2022/06/01 04:11:00;;;;;;;66.67;4.57;;;;;;;;;;5075894;28;20481;-80
2022/06/01 04:13:28;;;;;;;62.60;5.13;;;;;;;;;;5076135;28;20436;-80
2022/06/01 04:15:55;;;;;;;62.87;4.80;;;;;;;;;;5075900;28;20446;-80
2022/06/01 04:18:23;;;;;;;60.17;4.37;;;;;;;;;;5075612;28;20477;-80
2022/06/01 04:20:53;;;;;;;63.90;5.20;;;;;;;;;;5076058;28;20513;-81
2022/06/01 04:23:20;;;;;;;60.20;4.30;;;;;;;;;;5076157;28;20416;-81
2022/06/01 04:25:49;;;;;;;60.93;5.00;;;;;;;;;;5076441;28;20447;-80
2022/06/01 04:28:16;;;;;;;59.70;4.00;;;;;;;;;;5076286;28;20439;-80
2022/06/01 04:30:43;;;;;;;60.37;4.67;;;;;;;;;;5076523;28;20459;-80
2022/06/01 04:33:11;;;;;;;61.13;4.57;;;;;;;;;;5077351;28;20435;-80
2022/06/01 04:35:38;;;;;;;60.47;4.20;;;;;;;;;;5094339;28;20434;-80
2022/06/01 04:38:14;;;;;;;61.00;4.60;;;;;;;;;;5090285;28;20531;-80
2022/06/01 04:40:42;;;;;;;61.20;4.93;;;;;;;;;;5089301;28;20459;-80
2022/06/01 04:43:12;;;;;;;60.97;4.30;;;;;;;;;;5088359;28;20485;-80
2022/06/01 04:45:39;;;;;;;63.27;4.17;;;;;;;;;;5073053;28;20854;-80
2022/06/01 04:48:08;;;;;;;63.27;5.20;;;;;;;;;;5054960;28;20454;-80
2022/06/01 04:50:42;;;;;;;60.87;5.17;;;;;;;;;;5073281;28;20512;-80
2022/06/01 04:53:09;;;;;;;59.63;4.27;;;;;;;;;;5073207;28;20807;-80
2022/06/01 04:55:36;;;;;;;60.70;4.73;;;;;;;;;;5072867;28;20443;-80
2022/06/01 04:58:03;;;;;;;64.57;5.00;;;;;;;;;;5073189;28;20893;-80
2022/06/01 05:00:34;;;;;;;61.90;5.20;;;;;;;;;;5073237;28;20639;-80
2022/06/01 05:03:01;;;;;;;60.90;4.90;;;;;;;;;;5073677;28;20498;-80
2022/06/01 05:05:28;;;;;;;60.10;4.60;;;;;;;;;;5073247;28;20439;-80
2022/06/01 05:07:56;;;;;;;60.30;4.73;;;;;;;;;;5073185;28;20527;-80
2022/06/01 05:10:23;;;;;;;60.10;4.40;;;;;;;;;;5073841;28;20452;-80
2022/06/01 05:12:51;;;;;;;61.30;4.97;;;;;;;;;;5073802;28;20505;-80
2022/06/01 05:15:18;;;;;;;60.17;4.20;;;;;;;;;;5073322;28;20435;-80
2022/06/01 05:17:47;;;;;;;60.50;4.73;;;;;;;;;;5072936;28;20471;-81
2022/06/01 05:20:14;;;;;;;60.67;4.90;;;;;;;;;;5073561;28;20459;-80
2022/06/01 05:22:42;;;;;;;61.00;4.87;;;;;;;;;;5074073;28;20442;-80
2022/06/01 05:25:10;;;;;;;60.30;4.40;;;;;;;;;;5074275;28;20485;-81
2022/06/01 05:27:38;;;;;;;60.40;4.57;;;;;;;;;;5073957;28;20816;-80
2022/06/01 05:30:07;;;;;;;59.70;3.80;;;;;;;;;;5073957;28;20521;-80
2022/06/01 05:32:34;;;;;;;63.00;4.60;;;;;;;;;;5073554;28;20436;-81
2022/06/01 05:35:03;;;;;;;59.80;3.83;;;;;;;;;;5074332;28;20852;-80
2022/06/01 05:37:30;;;;;;;60.97;4.70;;;;;;;;;;5073771;28;20482;-81
2022/06/01 05:39:57;;;;;;;60.80;4.27;;;;;;;;;;5073948;28;20467;-81
2022/06/01 05:42:25;;;;;;;59.87;4.43;;;;;;;;;;5073680;28;20443;-81
2022/06/01 05:44:54;;;;;;;60.57;4.60;;;;;;;;;;5073734;28;20447;-81
2022/06/01 05:47:21;;;;;;;59.70;4.07;;;;;;;;;;5074450;28;20436;-81
2022/06/01 05:49:48;;;;;;;59.97;4.00;;;;;;;;;;5074666;28;20513;-81
2022/06/01 05:52:20;;;;;;;59.07;3.20;;;;;;;;;;5076962;28;20994;-83
2022/06/01 05:54:48;;;;;;;60.33;4.07;;;;;;;;;;5078346;28;20946;-81
2022/06/01 05:57:15;;;;;;;61.07;4.40;;;;;;;;;;5078163;28;20482;-81
2022/06/01 05:59:43;;;;;;;60.37;4.40;;;;;;;;;;5079027;28;20486;-81
2022/06/01 06:02:11;;;;;;;59.97;4.00;;;;;;;;;;5079365;28;20441;-81
2022/06/01 06:04:38;;;;;;;60.50;4.57;;;;;;;;;;5080701;28;20538;-81
2022/06/01 06:07:06;;;;;;;60.13;4.23;;;;;;;;;;5080258;28;20443;-81
2022/06/01 06:09:35;;;;;;;59.70;4.20;;;;;;;;;;5080761;28;20459;-81
2022/06/01 06:12:02;;;;;;;60.00;4.00;;;;;;;;;;5080971;28;20439;-81
2022/06/01 06:14:30;;;;;;;59.50;3.83;;;;;;;;;;5081918;28;20459;-81
2022/06/01 06:16:57;;;;;;;59.77;3.93;;;;;;;;;;5081112;28;20443;-82
2022/06/01 06:19:24;;;;;;;59.50;3.70;;;;;;;;;;5081679;28;20479;-81
2022/06/01 06:21:52;;;;;;;61.40;4.60;;;;;;;;;;5081255;28;20447;-83
2022/06/01 06:24:20;;;;;;;60.20;4.17;;;;;;;;;;5080493;28;20451;-82
2022/06/01 06:26:49;;;;;;;64.20;3.97;;;;;;;;;;5079102;28;20443;-84
2022/06/01 06:29:18;;;;;;;60.27;3.93;;;;;;;;;;5079283;28;20510;-83
2022/06/01 06:31:45;;;;;;;59.37;3.63;;;;;;;;;;5081859;28;20501;-82
2022/06/01 06:34:13;;;;;;;60.17;4.23;;;;;;;;;;5081878;28;20498;-82
2022/06/01 06:36:40;;;;;;;60.07;4.03;;;;;;;;;;5081923;28;20446;-82
2022/06/01 06:39:07;;;;;;;60.97;3.70;;;;;;;;;;5080409;28;20494;-82
2022/06/01 06:41:34;;;;;;;59.80;3.70;;;;;;;;;;5081381;28;20417;-82
2022/06/01 06:44:03;;;;;;;59.40;4.00;;;;;;;;;;5078499;28;20448;-84
2022/06/01 06:46:30;;;;;;;59.23;3.97;;;;;;;;;;5080453;28;20487;-82
2022/06/01 06:48:58;;;;;;;59.70;4.27;;;;;;;;;;5079246;28;20956;-83
2022/06/01 06:51:25;;;;;;;59.17;3.53;;;;;;;;;;5080591;28;20506;-82
2022/06/01 06:53:52;;;;;;;59.80;3.90;;;;;;;;;;5080229;28;20448;-81
2022/06/01 06:56:21;;;;;;;61.57;4.30;;;;;;;;;;5080677;28;20437;-80
2022/06/01 06:58:49;;;;;;;59.60;3.50;;;;;;;;;;5079847;28;20483;-80
2022/06/01 07:01:18;;;;;;;60.80;4.33;;;;;;;;;;5079881;28;20472;-80
2022/06/01 07:03:46;;;;;;;60.00;4.23;;;;;;;;;;5079672;28;20540;-80
2022/06/01 07:06:13;;;;;;;59.90;4.10;;;;;;;;;;5080205;28;20852;-80
2022/06/01 07:08:42;;;;;;;59.77;3.80;;;;;;;;;;5080612;28;20933;-80
2022/06/01 07:11:10;;;;;;;59.90;3.97;;;;;;;;;;5080086;28;20461;-80
2022/06/01 07:13:37;;;;;;;61.20;3.97;;;;;;;;;;5079825;28;20506;-80
2022/06/01 07:16:06;;;;;;;59.60;3.60;;;;;;;;;;5081011;28;20460;-80
2022/06/01 07:18:35;;;;;;;59.03;3.00;;;;;;;;;;5079736;28;20555;-81
2022/06/01 07:21:02;;;;;;;59.83;3.73;;;;;;;;;;5079925;28;20555;-80
2022/06/01 07:23:31;;;;;;;59.43;3.53;;;;;;;;;;5080700;28;20784;-81
2022/06/01 07:25:58;;;;;;;60.90;3.57;;;;;;;;;;5080111;28;20437;-80
2022/06/01 07:28:25;;;;;;;58.60;3.57;;;;;;;;;;5079357;28;20447;-80
2022/06/01 07:30:56;;;;;;;59.50;3.50;;;;;;;;;;5079044;28;20468;-80
2022/06/01 07:33:25;;;;;;;58.70;3.27;;;;;;;;;;5079924;28;20477;-82
2022/06/01 07:35:53;;;;;;;59.13;3.57;;;;;;;;;;5081395;28;20520;-81
2022/06/01 07:43:50;;;;;;;60.57;4.00;;;;;;;;;;5080947;28;20503;-81
2022/06/01 07:46:18;;;;;;;59.27;3.40;;;;;;;;;;5080752;28;20442;-81
2022/06/01 07:48:46;;;;;;;59.30;3.10;;;;;;;;;;5080451;28;20765;-81
2022/06/01 07:51:15;;;;;;;61.07;4.00;;;;;;;;;;5080130;28;20466;-81
2022/06/01 07:53:42;;;;;;;60.07;3.70;;;;;;;;;;5080355;28;20463;-81
2022/06/01 07:56:10;;;;;;;59.20;3.60;;;;;;;;;;5082134;28;20443;-81
2022/06/01 07:58:38;;;;;;;59.93;3.73;;;;;;;;;;5080313;28;21074;-81
2022/06/01 08:01:06;;;;;;;59.17;3.03;;;;;;;;;;5081131;28;20492;-81
2022/06/01 08:03:33;;;;;;;60.00;3.30;;;;;;;;;;5079935;28;20450;-80
2022/06/01 08:06:01;;;;;;;58.80;3.00;;;;;;;;;;5080770;28;20496;-81
2022/06/01 08:08:30;;;;;;;59.57;3.13;;;;;;;;;;5079977;28;20446;-81
2022/06/01 08:10:59;;;;;;;59.27;3.17;;;;;;;;;;5081875;28;20454;-81
2022/06/01 08:13:25;;;;;;;59.37;3.07;;;;;;;;;;5081399;28;20444;-81
2022/06/01 08:15:54;;;;;;;60.27;3.80;;;;;;;;;;5081885;28;20433;-82
2022/06/01 08:18:22;;;;;;;59.37;3.93;;;;;;;;;;5074851;28;20440;-81
2022/06/01 08:20:50;;;;;;;59.37;3.30;;;;;;;;;;5072806;28;20458;-81
2022/06/01 08:23:18;;;;;;;59.67;3.70;;;;;;;;;;5073415;28;20446;-80
2022/06/01 08:25:47;;;;;;;59.00;3.20;;;;;;;;;;5073959;28;20456;-81
2022/06/01 08:28:14;;;;;;;58.67;3.07;;;;;;;;;;5074630;28;20451;-80
2022/06/01 08:30:42;;;;;;;59.00;3.30;;;;;;;;;;5074309;28;20460;-79
2022/06/01 08:33:10;;;;;;;58.57;2.93;;;;;;;;;;5074370;28;20527;-79
2022/06/01 08:35:38;;;;;;;60.10;3.13;;;;;;;;;;5075943;28;20513;-80
2022/06/01 08:38:06;;;;;;;59.13;3.30;;;;;;;;;;5075717;28;20453;-80
2022/06/01 08:40:35;;;;;;;58.57;3.13;;;;;;;;;;5075600;28;20480;-81
2022/06/01 08:43:05;;;;;;;59.07;3.10;;;;;;;;;;5075140;28;21134;-81
2022/06/01 08:45:33;;;;;;;59.17;2.90;;;;;;;;;;5076320;28;20481;-81
2022/06/01 08:48:00;;;;;;;58.77;2.90;;;;;;;;;;5075086;28;20500;-81
2022/06/01 08:50:29;;;;;;;59.50;2.83;;;;;;;;;;5075994;28;20981;-80
2022/06/01 08:52:58;;;;;;;58.90;3.03;;;;;;;;;;5075363;28;20459;-81
2022/06/01 08:55:26;;;;;;;58.87;2.87;;;;;;;;;;5076145;28;20911;-81
2022/06/01 08:57:57;;;;;;;58.50;2.73;;;;;;;;;;5075663;28;20447;-81
2022/06/01 09:00:29;;;;;;;58.63;2.90;;;;;;;;;;5077823;28;20487;-81
2022/06/01 09:03:01;;;;;;;59.27;2.93;;;;;;;;;;5077745;28;20452;-81
2022/06/01 09:05:34;;;;;;;61.57;3.17;;;;;;;;;;5077202;28;20451;-81
2022/06/01 09:08:03;;;;;;;59.30;3.03;;;;;;;;;;5077103;28;20460;-80
2022/06/01 09:10:53;;;;;;;58.30;2.70;;;;;;;;;;5076585;28;20859;-82
2022/06/01 09:13:24;;;;;;;58.90;3.27;;;;;;;;;;5076903;28;20562;-80
2022/06/01 09:15:54;;;;;;;59.10;2.93;;;;;;;;;;5077391;28;20511;-81
2022/06/01 09:18:23;;;;;;;58.20;2.70;;;;;;;;;;5076595;28;20962;-81
2022/06/01 09:23:36;;;;;;;58.53;2.90;;;;;;;;;;5076610;28;21008;-81
2022/06/01 09:26:05;;;;;;;58.77;3.13;;;;;;;;;;5068733;28;20435;-80
2022/06/01 09:28:38;;;;;;;58.80;3.03;;;;;;;;;;5076415;28;20442;-84
2022/06/01 09:31:20;;;;;;;58.60;3.10;;;;;;;;;;5077645;28;20459;-80
2022/06/01 09:33:47;;;;;;;58.80;3.10;;;;;;;;;;5076123;28;20424;-80
2022/06/01 09:36:23;;;;;;;58.80;2.90;;;;;;;;;;5065845;28;20436;-80
2022/06/01 09:38:52;;;;;;;58.47;2.90;;;;;;;;;;5056399;28;20522;-80
2022/06/01 09:41:24;;;;;;;59.67;2.83;;;;;;;;;;5056676;28;20488;-80
2022/06/01 09:43:54;;;;;;;59.27;2.87;;;;;;;;;;5057742;28;20456;-80
2022/06/01 09:46:32;;;;;;;60.23;2.93;;;;;;;;;;5058274;28;20439;-82
2022/06/01 09:49:00;;;;;;;59.57;3.00;;;;;;;;;;5055732;28;20947;-81
2022/06/01 09:51:27;;;;;;;58.90;3.00;;;;;;;;;;5061486;28;20441;-80
2022/06/01 09:54:08;;;;;;;58.87;2.93;;;;;;;;;;5060627;28;20441;-79
2022/06/01 09:56:40;;;;;;;58.27;2.70;;;;;;;;;;5062216;28;20519;-79
2022/06/01 10:07:40;;;;;;;58.67;2.40;;;;;;;;;;5056608;28;20423;-80
2022/06/01 10:10:08;;;;;;;58.77;2.80;;;;;;;;;;5072302;28;20873;-79
2022/06/01 10:12:38;;;;;;;58.53;2.77;;;;;;;;;;5064573;28;20496;-80
2022/06/01 10:15:13;;;;;;;58.07;2.40;;;;;;;;;;5072802;28;20458;-81
2022/06/01 10:17:43;;;;;;;58.77;2.50;;;;;;;;;;5073125;28;20479;-80
2022/06/01 10:20:17;;;;;;;58.50;2.50;;;;;;;;;;5073620;28;20483;-80
2022/06/01 10:22:48;;;;;;;58.53;2.67;;;;;;;;;;5073689;28;20434;-79
2022/06/01 10:25:16;;;;;;;58.17;2.30;;;;;;;;;;5073489;28;20518;-80
2022/06/01 10:27:49;;;;;;;58.17;2.40;;;;;;;;;;5073254;28;20462;-81
2022/06/01 10:30:19;;;;;;;58.27;2.43;;;;;;;;;;5073646;28;20455;-79
2022/06/01 10:32:50;;;;;;;58.07;2.53;;;;;;;;;;5073882;28;20439;-80
2022/06/01 10:35:27;;;;;;;58.50;2.87;;;;;;;;;;5074091;28;20432;-80
2022/06/01 10:37:58;;;;;;;58.20;2.50;;;;;;;;;;5075885;28;20452;-80
2022/06/01 10:40:29;;;;;;;58.13;2.40;;;;;;;;;;5078301;28;20498;-80
2022/06/01 10:45:47;;;;;;;58.13;2.27;;;;;;;;;;5078212;28;20425;-79
2022/06/01 10:48:16;;;;;;;58.30;2.47;;;;;;;;;;5078325;28;20440;-79
2022/06/01 10:50:47;;;;;;;58.00;2.20;;;;;;;;;;5078493;28;20482;-78
2022/06/01 10:53:18;;;;;;;58.20;2.30;;;;;;;;;;5078620;28;20431;-79
2022/06/01 10:55:48;;;;;;;58.47;2.43;;;;;;;;;;5078524;28;20432;-79
2022/06/01 10:58:19;;;;;;;58.20;2.50;;;;;;;;;;5077764;28;20458;-79
2022/06/01 11:00:49;;;;;;;58.10;2.27;;;;;;;;;;5077386;28;20561;-80
2022/06/01 11:03:30;;;;;;;58.37;2.47;;;;;;;;;;5078427;28;20430;-80
2022/06/01 11:06:04;;;;;;;57.97;2.37;;;;;;;;;;5078446;28;20494;-80
2022/06/01 11:08:38;;;;;;;57.63;1.93;;;;;;;;;;5078019;28;20420;-79
2022/06/01 11:11:09;;;;;;;57.77;2.03;;;;;;;;;;5078770;28;20507;-80
2022/06/01 11:13:46;;;;;;;58.30;2.47;;;;;;;;;;5079154;28;20444;-81
2022/06/01 11:16:22;;;;;;;57.67;2.10;;;;;;;;;;5078342;28;20432;-81
2022/06/01 11:19:04;;;;;;;58.87;2.30;;;;;;;;;;5078699;28;20443;-79
2022/06/01 11:21:39;;;;;;;57.60;2.20;;;;;;;;;;5078952;28;20440;-79
2022/06/01 11:24:19;;;;;;;57.57;1.93;;;;;;;;;;5078059;28;20450;-80
2022/06/01 11:26:51;;;;;;;57.90;2.30;;;;;;;;;;5079305;28;20546;-80
2022/06/01 11:29:24;;;;;;;57.90;2.20;;;;;;;;;;5079003;28;20451;-80
2022/06/01 11:31:53;;;;;;;57.97;2.03;;;;;;;;;;5079804;28;20943;-80
2022/06/01 11:34:25;;;;;;;57.77;2.10;;;;;;;;;;5080108;28;20454;-80
2022/06/01 11:36:56;;;;;;;59.00;2.30;;;;;;;;;;5079310;28;20443;-80
2022/06/01 11:39:28;;;;;;;58.17;2.30;;;;;;;;;;5078910;28;20457;-80
2022/06/01 11:41:58;;;;;;;58.10;2.20;;;;;;;;;;5079587;28;20436;-81
2022/06/01 11:44:28;;;;;;;62.60;2.70;;;;;;;;;;5079299;28;20434;-82
2022/06/01 11:46:56;;;;;;;57.90;2.20;;;;;;;;;;5078629;28;20460;-78
2022/06/01 11:49:33;;;;;;;57.57;1.80;;;;;;;;;;5076356;28;20460;-78
2022/06/01 11:52:15;;;;;;;57.37;2.10;;;;;;;;;;5079140;28;20435;-80
2022/06/01 11:54:42;;;;;;;57.60;2.50;;;;;;;;;;5079725;28;20435;-80
2022/06/01 11:57:19;;;;;;;57.47;2.00;;;;;;;;;;5078084;28;20443;-80
2022/06/01 11:59:47;;;;;;;57.57;2.10;;;;;;;;;;5078577;28;20549;-81
2022/06/01 12:02:19;;;;;;;57.77;2.30;;;;;;;;;;5078991;28;20443;-80
2022/06/01 12:04:58;;;;;;;58.20;2.20;;;;;;;;;;5079878;28;20456;-80
2022/06/01 12:07:30;;;;;;;57.70;1.90;;;;;;;;;;5078150;28;20439;-79
2022/06/01 12:10:02;;;;;;;57.87;2.13;;;;;;;;;;5078644;28;20845;-81
2022/06/01 12:12:44;;;;;;;58.30;2.20;;;;;;;;;;5078369;28;20468;-79
2022/06/01 12:15:17;;;;;;;58.30;2.40;;;;;;;;;;5077577;28;20454;-80
2022/06/01 12:17:59;;;;;;;58.20;2.10;;;;;;;;;;5079066;28;20431;-79
2022/06/01 12:20:47;;;;;;;57.90;2.17;;;;;;;;;;5079425;28;20528;-82
2022/06/01 12:29:34;;;;;;;58.13;2.30;;;;;;;;;;5079167;28;20449;-82
2022/06/01 12:32:09;;;;;;;58.87;2.40;;;;;;;;;;5079443;28;20456;-82
2022/06/01 12:34:40;;;;;;;58.10;2.20;;;;;;;;;;5078547;28;20427;-81
2022/06/01 12:37:10;;;;;;;57.87;2.20;;;;;;;;;;5078177;28;20861;-81
2022/06/01 12:39:43;;;;;;;58.07;2.50;;;;;;;;;;5079741;28;20487;-80
2022/06/01 12:42:14;;;;;;;57.80;2.20;;;;;;;;;;5079653;28;20455;-82
2022/06/01 12:44:42;;;;;;;58.07;2.23;;;;;;;;;;5078341;28;20518;-81
2022/06/01 12:47:09;;;;;;;60.10;2.30;;;;;;;;;;5078876;28;20442;-81
2022/06/01 12:49:38;;;;;;;58.33;2.40;;;;;;;;;;5078609;28;20572;-81
2022/06/01 12:52:07;;;;;;;57.80;1.90;;;;;;;;;;5078838;28;20447;-80
2022/06/01 12:54:36;;;;;;;58.37;2.20;;;;;;;;;;5078673;28;20456;-81
2022/06/01 12:57:04;;;;;;;58.27;2.40;;;;;;;;;;5078932;28;20432;-81
2022/06/01 12:59:34;;;;;;;58.10;2.10;;;;;;;;;;5078140;28;20490;-82
2022/06/01 13:02:05;;;;;;;58.03;2.07;;;;;;;;;;5077766;28;20436;-82
2022/06/01 13:04:32;;;;;;;58.20;2.37;;;;;;;;;;5078800;28;20437;-81
2022/06/01 13:07:00;;;;;;;58.30;2.50;;;;;;;;;;5078650;28;20781;-82
2022/06/01 13:09:30;;;;;;;58.17;2.27;;;;;;;;;;5078905;28;20466;-81
2022/06/01 13:11:58;;;;;;;63.80;2.40;;;;;;;;;;5076616;28;20453;-81
2022/06/01 13:14:26;;;;;;;58.07;2.20;;;;;;;;;;5072034;28;20923;-82
2022/06/01 13:16:54;;;;;;;60.57;2.43;;;;;;;;;;5072252;28;20432;-80
2022/06/01 13:19:24;;;;;;;58.10;2.30;;;;;;;;;;5072038;28;20604;-81
2022/06/01 13:21:53;;;;;;;60.00;2.30;;;;;;;;;;5072785;28;20482;-81
2022/06/01 13:24:21;;;;;;;57.87;2.20;;;;;;;;;;5072820;28;20442;-81
2022/06/01 13:26:50;;;;;;;58.07;2.20;;;;;;;;;;5073303;28;20934;-83
2022/06/01 13:29:19;;;;;;;58.03;2.30;;;;;;;;;;5073530;28;20453;-81
2022/06/01 13:31:48;;;;;;;57.90;2.00;;;;;;;;;;5074617;28;20470;-81
2022/06/01 13:34:21;;;;;;;59.70;2.40;;;;;;;;;;5074171;28;20467;-80
2022/06/01 13:36:50;;;;;;;58.00;2.30;;;;;;;;;;5073612;28;20450;-81
2022/06/01 13:39:17;;;;;;;58.30;2.30;;;;;;;;;;5072940;28;20452;-81
2022/06/01 13:41:53;;;;;;;58.17;2.40;;;;;;;;;;5073151;28;21141;-82
2022/06/01 13:44:39;;;;;;;58.03;2.40;;;;;;;;;;5073788;28;20438;-81
2022/06/01 13:47:06;;;;;;;57.97;2.40;;;;;;;;;;5074367;28;20438;-83
2022/06/01 13:49:35;;;;;;;58.87;2.50;;;;;;;;;;5075026;28;20458;-82
2022/06/01 13:52:05;;;;;;;58.07;2.20;;;;;;;;;;5067157;28;20481;-82
2022/06/01 13:54:34;;;;;;;58.60;2.30;;;;;;;;;;5078073;28;20468;-83
2022/06/01 13:57:03;;;;;;;58.07;2.83;;;;;;;;;;5078798;28;20468;-82
2022/06/01 13:59:32;;;;;;;58.20;2.47;;;;;;;;;;5078418;28;20491;-82
2022/06/01 14:02:02;;;;;;;58.80;2.30;;;;;;;;;;5079265;28;20548;-82
2022/06/01 14:04:31;;;;;;;58.67;2.77;;;;;;;;;;5080771;28;20463;-81
2022/06/01 14:07:04;;;;;;;58.90;2.53;;;;;;;;;;5081355;28;20458;-82
2022/06/01 14:09:33;;;;;;;58.00;2.23;;;;;;;;;;5080000;28;20479;-83
2022/06/01 14:12:01;;;;;;;57.63;2.30;;;;;;;;;;5080892;28;20454;-82
2022/06/01 14:14:30;;;;;;;57.93;2.37;;;;;;;;;;5084189;28;20900;-82
2022/06/01 14:16:58;;;;;;;58.10;2.50;;;;;;;;;;5083963;28;20431;-83
2022/06/01 14:19:35;;;;;;;;;;;;;;;;;;;;;
2022/06/01 14:22:10;;;;;;;58.27;2.50;;;;;;;;;;5083460;28;20442;-81
2022/06/01 14:30:09;;;;;;;58.97;2.40;;;;;;;;;;5082827;28;21014;-81
2022/06/01 14:32:38;;;;;;;59.37;2.70;;;;;;;;;;5082052;28;20437;-82
2022/06/01 14:35:07;;;;;;;58.30;2.43;;;;;;;;;;5083060;28;20466;-80
2022/06/01 14:37:35;;;;;;;57.97;2.60;;;;;;;;;;5081184;28;20460;-81
2022/06/01 14:40:08;;;;;;;57.90;2.23;;;;;;;;;;5082509;28;20465;-82
2022/06/01 14:42:38;;;;;;;58.00;2.13;;;;;;;;;;5082694;28;20451;-82
2022/06/01 14:45:14;;;;;;;58.07;2.23;;;;;;;;;;5082933;28;20457;-81
2022/06/01 14:47:41;;;;;;;58.20;2.30;;;;;;;;;;5083504;28;20443;-82
2022/06/01 14:50:11;;;;;;;58.50;2.40;;;;;;;;;;5083697;28;20472;-81
2022/06/01 14:52:43;;;;;;;58.13;2.30;;;;;;;;;;5083286;28;20436;-80
2022/06/01 14:55:14;;;;;;;58.03;2.27;;;;;;;;;;5092133;28;20534;-81
2022/06/01 14:57:44;;;;;;;58.17;2.50;;;;;;;;;;5090790;28;20443;-78
2022/06/01 15:00:14;;;;;;;58.60;2.50;;;;;;;;;;5091081;28;20475;-79
2022/06/01 15:02:50;;;;;;;58.83;2.53;;;;;;;;;;5089378;28;20442;-80
2022/06/01 15:05:19;;;;;;;58.40;2.57;;;;;;;;;;5080603;28;20501;-81
2022/06/01 15:07:51;;;;;;;62.40;2.73;;;;;;;;;;5075745;28;20443;-81
2022/06/01 15:10:23;;;;;;;57.97;2.40;;;;;;;;;;5076347;28;20999;-80
2022/06/01 15:12:55;;;;;;;59.30;3.10;;;;;;;;;;5076792;28;20878;-79
2022/06/01 15:15:26;;;;;;;58.57;2.70;;;;;;;;;;5077425;28;20464;-81
2022/06/01 15:17:56;;;;;;;58.23;2.50;;;;;;;;;;5077482;28;20463;-82
2022/06/01 15:20:26;;;;;;;58.63;2.80;;;;;;;;;;5077439;28;20883;-82
2022/06/01 15:22:55;;;;;;;60.00;3.10;;;;;;;;;;5078846;28;20432;-81